createdAt,value
2022-10-01T00:01:05.098Z,62.78
2022-10-01T00:02:37.097Z,63.22
2022-10-01T00:04:08.577Z,63.44
2022-10-01T00:05:40.027Z,63.68
2022-10-01T00:07:15.747Z,64.14
2022-10-01T00:08:48.872Z,64.61
2022-10-01T00:10:20.570Z,64.88
2022-10-01T00:11:53.384Z,65.67
2022-10-01T00:13:25.508Z,65.40
2022-10-01T00:14:56.988Z,65.83
2022-10-01T00:16:29.185Z,66.42
2022-10-01T00:18:00.655Z,66.44
2022-10-01T00:19:32.138Z,66.37
2022-10-01T00:21:07.793Z,67.12
2022-10-01T00:22:40.746Z,67.24
2022-10-01T00:24:12.692Z,67.41
2022-10-01T00:25:44.168Z,67.47
2022-10-01T00:27:15.598Z,68.01
2022-10-01T00:28:48.139Z,67.61
2022-10-01T00:30:19.727Z,68.20
2022-10-01T00:31:51.541Z,67.87
2022-10-01T00:33:23.011Z,68.68
2022-10-01T00:34:54.477Z,68.53
2022-10-01T00:36:26.315Z,68.49
2022-10-01T00:38:01.438Z,68.54
2022-10-01T00:39:32.903Z,69.00
2022-10-01T00:41:04.865Z,69.26
2022-10-01T00:42:36.295Z,69.50
2022-10-01T00:44:22.576Z,69.55
2022-10-01T00:45:56.104Z,70.02
2022-10-01T00:47:31.491Z,70.44
2022-10-01T00:49:07.023Z,69.96
2022-10-01T00:50:38.461Z,69.72
2022-10-01T00:52:13.737Z,70.52
2022-10-01T00:53:47.179Z,70.02
2022-10-01T00:55:20.714Z,70.93
2022-10-01T00:56:54.092Z,70.53
2022-10-01T00:58:26.796Z,71.04
2022-10-01T01:00:01.164Z,71.00
2022-10-01T01:01:35.619Z,71.42
2022-10-01T01:03:07.961Z,71.46
2022-10-01T01:04:41.420Z,71.20
2022-10-01T01:06:12.912Z,71.49
2022-10-01T01:07:46.778Z,71.55
2022-10-01T01:09:19.713Z,71.67
2022-10-01T01:10:55.771Z,72.13
2022-10-01T01:12:33.554Z,72.19
2022-10-01T01:14:10.880Z,72.33
2022-10-01T01:15:45.756Z,72.52
2022-10-01T01:17:23.352Z,72.89
2022-10-01T01:18:59.156Z,72.60
2022-10-01T01:20:47.484Z,73.26
2022-10-01T01:22:21.131Z,73.44
2022-10-01T01:24:09.304Z,73.25
2022-10-01T01:25:45.874Z,73.71
2022-10-01T01:27:24.183Z,73.90
2022-10-01T01:28:59.492Z,74.21
2022-10-01T01:30:31.691Z,73.81
2022-10-01T01:32:09.458Z,74.12
2022-10-01T01:33:45.850Z,73.70
2022-10-01T01:35:20.596Z,74.09
2022-10-01T01:36:55.711Z,74.77
2022-10-01T01:38:29.771Z,75.35
2022-10-01T01:40:03.612Z,75.09
2022-10-01T01:41:37.533Z,75.57
2022-10-01T01:43:11.333Z,75.72
2022-10-01T01:44:45.794Z,75.71
2022-10-01T01:46:18.074Z,75.66
2022-10-01T01:47:50.945Z,75.81
2022-10-01T01:49:23.307Z,75.72
2022-10-01T01:50:57.520Z,75.92
2022-10-01T01:52:29.285Z,76.54
2022-10-01T01:54:00.938Z,76.70
2022-10-01T01:55:35.172Z,76.86
2022-10-01T01:57:07.637Z,76.44
2022-10-01T01:58:39.171Z,76.90
2022-10-01T02:00:12.979Z,77.08
2022-10-01T02:01:45.114Z,76.72
2022-10-01T02:03:16.573Z,76.24
2022-10-01T02:04:49.991Z,76.30
2022-10-01T02:06:28.562Z,76.22
2022-10-01T02:08:20.924Z,76.44
2022-10-01T02:10:00.039Z,76.08
2022-10-01T02:11:33.599Z,76.72
2022-10-01T02:13:14.476Z,76.75
2022-10-01T02:14:52.074Z,76.35
2022-10-01T02:16:30.526Z,76.52
2022-10-01T02:18:04.909Z,76.44
2022-10-01T02:19:44.040Z,76.23
2022-10-01T02:21:18.847Z,76.35
2022-10-01T02:22:52.772Z,76.18
2022-10-01T02:24:28.141Z,76.13
2022-10-01T02:26:02.460Z,76.14
2022-10-01T02:27:37.367Z,76.05
2022-10-01T02:29:12.527Z,76.16
2022-10-01T02:30:45.046Z,76.10
2022-10-01T02:32:18.496Z,76.15
2022-10-01T02:33:51.694Z,77.01
2022-10-01T02:35:23.626Z,76.92
2022-10-01T02:36:56.929Z,77.05
2022-10-01T02:38:28.591Z,76.88
2022-10-01T02:40:02.767Z,77.51
2022-10-01T02:41:35.092Z,77.24
2022-10-01T02:43:10.761Z,77.11
2022-10-01T02:44:44.927Z,77.21
2022-10-01T02:46:21.711Z,77.49
2022-10-01T02:47:57.481Z,77.30
2022-10-01T02:49:31.024Z,77.71
2022-10-01T02:51:10.533Z,77.43
2022-10-01T02:52:45.749Z,77.93
2022-10-01T02:54:20.061Z,77.98
2022-10-01T02:55:52.566Z,78.42
2022-10-01T02:57:24.418Z,78.40
2022-10-01T02:58:55.914Z,78.20
2022-10-01T03:00:28.606Z,78.05
2022-10-01T03:02:00.246Z,78.39
2022-10-01T03:03:33.147Z,78.19
2022-10-01T03:05:05.062Z,77.89
2022-10-01T03:06:36.491Z,78.10
2022-10-01T03:08:08.194Z,78.61
2022-10-01T03:09:39.740Z,78.21
2022-10-01T03:11:11.178Z,78.07
2022-10-01T03:12:44.062Z,78.60
2022-10-01T03:14:15.518Z,78.50
2022-10-01T03:15:47.188Z,78.26
2022-10-01T03:17:18.712Z,78.37
2022-10-01T03:18:51.526Z,78.76
2022-10-01T03:20:23.500Z,79.12
2022-10-01T03:21:56.435Z,79.09
2022-10-01T03:23:27.898Z,79.61
2022-10-01T03:24:59.738Z,79.59
2022-10-01T03:26:31.180Z,79.66
2022-10-01T03:28:02.685Z,79.65
2022-10-01T03:29:34.184Z,79.47
2022-10-01T03:31:06.981Z,79.74
2022-10-01T03:32:38.677Z,79.95
2022-10-01T03:34:13.204Z,80.39
2022-10-01T03:35:44.666Z,80.04
2022-10-01T03:37:16.104Z,79.68
2022-10-01T03:38:47.545Z,79.93
2022-10-01T03:40:19.306Z,79.94
2022-10-01T03:41:50.864Z,80.13
2022-10-01T03:43:22.339Z,80.25
2022-10-01T03:44:53.817Z,80.97
2022-10-01T03:46:26.248Z,80.81
2022-10-01T03:47:57.693Z,80.93
2022-10-01T03:49:30.546Z,80.39
2022-10-01T03:51:02.023Z,80.88
2022-10-01T03:52:33.538Z,80.42
2022-10-01T03:54:05.817Z,80.29
2022-10-01T03:55:37.291Z,80.38
2022-10-01T03:57:08.715Z,80.87
2022-10-01T03:58:40.205Z,80.98
2022-10-01T04:00:13.924Z,81.20
2022-10-01T04:01:45.417Z,81.44
2022-10-01T04:03:17.622Z,81.82
2022-10-01T04:04:51.043Z,81.36
2022-10-01T04:06:22.550Z,81.83
2022-10-01T04:07:54.218Z,80.96
2022-10-01T04:09:25.696Z,81.62
2022-10-01T04:10:57.167Z,81.00
2022-10-01T04:12:28.611Z,81.23
2022-10-01T04:14:00.061Z,80.75
2022-10-01T04:15:32.742Z,80.76
2022-10-01T04:17:04.166Z,80.66
2022-10-01T04:18:35.739Z,80.96
2022-10-01T04:20:08.767Z,81.03
2022-10-01T04:21:40.263Z,80.88
2022-10-01T04:23:11.720Z,80.94
2022-10-01T04:24:43.149Z,79.90
2022-10-01T04:26:14.578Z,80.51
2022-10-01T04:27:57.444Z,80.10
2022-10-01T04:29:28.913Z,79.91
2022-10-01T04:31:18.751Z,79.91
2022-10-01T04:32:50.279Z,79.88
2022-10-01T04:34:41.729Z,79.63
2022-10-01T04:36:14.866Z,79.29
2022-10-01T04:37:46.299Z,79.53
2022-10-01T04:39:17.776Z,79.82
2022-10-01T04:40:49.434Z,79.88
2022-10-01T04:42:20.882Z,79.86
2022-10-01T04:43:52.593Z,79.58
2022-10-01T04:45:24.025Z,79.86
2022-10-01T04:46:55.524Z,79.62
2022-10-01T04:48:27.218Z,79.88
2022-10-01T04:49:58.668Z,79.90
2022-10-01T04:51:31.732Z,78.72
2022-10-01T04:53:03.316Z,79.04
2022-10-01T04:54:34.982Z,78.93
2022-10-01T04:56:06.599Z,78.91
2022-10-01T04:57:41.507Z,79.08
2022-10-01T04:59:12.925Z,79.30
2022-10-01T05:00:44.514Z,79.14
2022-10-01T05:02:17.995Z,79.91
2022-10-01T05:03:49.508Z,80.19
2022-10-01T05:05:22.001Z,80.81
2022-10-01T05:06:54.828Z,80.77
2022-10-01T05:08:26.309Z,81.04
2022-10-01T05:09:57.877Z,80.85
2022-10-01T05:11:29.377Z,80.96
2022-10-01T05:13:02.082Z,81.82
2022-10-01T05:14:33.588Z,81.78
2022-10-01T05:16:05.196Z,81.92
2022-10-01T05:17:36.742Z,82.30
2022-10-01T05:19:08.226Z,82.75
2022-10-01T05:20:39.756Z,82.83
2022-10-01T05:22:12.564Z,82.75
2022-10-01T05:23:44.393Z,82.19
2022-10-01T05:25:16.433Z,81.51
2022-10-01T05:26:47.861Z,81.85
2022-10-01T05:28:22.465Z,82.17
2022-10-01T05:29:54.337Z,81.75
2022-10-01T05:31:25.897Z,81.19
2022-10-01T05:32:58.376Z,81.73
2022-10-01T05:34:29.803Z,81.97
2022-10-01T05:36:01.530Z,81.19
2022-10-01T05:37:34.333Z,81.45
2022-10-01T05:39:05.926Z,81.31
2022-10-01T05:40:37.408Z,81.91
2022-10-01T05:42:08.813Z,82.25
2022-10-01T05:43:40.236Z,81.74
2022-10-01T05:45:11.686Z,82.60
2022-10-01T05:46:43.645Z,82.57
2022-10-01T05:48:15.066Z,82.25
2022-10-01T05:49:46.569Z,82.39
2022-10-01T05:51:18.841Z,82.08
2022-10-01T05:52:54.534Z,82.12
2022-10-01T05:54:25.938Z,82.07
2022-10-01T05:55:58.733Z,81.91
2022-10-01T05:57:31.135Z,81.89
2022-10-01T05:59:02.551Z,82.28
2022-10-01T06:00:34.545Z,81.90
2022-10-01T06:02:06.083Z,81.64
2022-10-01T06:03:38.778Z,82.07
2022-10-01T06:05:10.201Z,82.36
2022-10-01T06:06:41.957Z,82.59
2022-10-01T06:08:14.864Z,82.20
2022-10-01T06:09:46.635Z,82.07
2022-10-01T06:11:18.144Z,81.66
2022-10-01T06:12:49.829Z,81.43
2022-10-01T06:14:21.334Z,81.67
2022-10-01T06:15:52.997Z,81.38
2022-10-01T06:17:24.449Z,81.40
2022-10-01T06:18:57.578Z,81.18
2022-10-01T06:20:29.014Z,80.76
2022-10-01T06:22:00.481Z,81.23
2022-10-01T06:23:33.378Z,81.32
2022-10-01T06:25:05.300Z,81.43
2022-10-01T06:26:36.748Z,81.11
2022-10-01T06:28:09.340Z,81.23
2022-10-01T06:29:40.828Z,81.71
2022-10-01T06:31:12.320Z,81.33
2022-10-01T06:32:43.796Z,81.21
2022-10-01T06:34:15.276Z,81.54
2022-10-01T06:35:47.574Z,81.43
2022-10-01T06:37:19.023Z,81.17
2022-10-01T06:38:51.933Z,81.11
2022-10-01T06:40:23.544Z,81.10
2022-10-01T06:41:55.047Z,81.13
2022-10-01T06:43:27.811Z,81.02
2022-10-01T06:44:59.290Z,81.31
2022-10-01T06:46:31.757Z,81.33
2022-10-01T06:48:03.398Z,81.56
2022-10-01T06:49:35.050Z,80.79
2022-10-01T06:51:06.566Z,81.10
2022-10-01T06:52:49.765Z,81.52
2022-10-01T06:54:22.569Z,81.03
2022-10-01T06:55:54.257Z,80.86
2022-10-01T06:57:25.726Z,81.17
2022-10-01T06:58:57.180Z,81.31
2022-10-01T07:00:29.605Z,81.41
2022-10-01T07:02:01.111Z,81.33
2022-10-01T07:03:32.693Z,81.05
2022-10-01T07:05:04.532Z,81.04
2022-10-01T07:06:36.036Z,81.06
2022-10-01T07:08:07.940Z,80.76
2022-10-01T07:09:40.731Z,80.61
2022-10-01T07:11:12.204Z,80.60
2022-10-01T07:12:43.865Z,80.42
2022-10-01T07:14:15.337Z,80.51
2022-10-01T07:15:47.103Z,80.51
2022-10-01T07:17:18.675Z,80.98
2022-10-01T07:18:50.143Z,80.57
2022-10-01T07:20:21.710Z,80.35
2022-10-01T07:21:53.192Z,80.21
2022-10-01T07:23:24.693Z,80.13
2022-10-01T07:24:57.524Z,80.17
2022-10-01T07:26:29.008Z,80.07
2022-10-01T07:28:01.706Z,80.29
2022-10-01T07:29:34.429Z,80.71
2022-10-01T07:31:11.164Z,80.82
2022-10-01T07:32:43.404Z,81.76
2022-10-01T07:34:15.235Z,81.96
2022-10-01T07:35:47.778Z,82.84
2022-10-01T07:37:19.315Z,83.01
2022-10-01T07:38:51.195Z,82.96
2022-10-01T07:40:23.985Z,83.01
2022-10-01T07:41:56.011Z,82.69
2022-10-01T07:43:27.477Z,82.97
2022-10-01T07:44:58.933Z,83.06
2022-10-01T07:46:34.525Z,82.96
2022-10-01T07:48:07.356Z,82.56
2022-10-01T07:49:38.854Z,82.37
2022-10-01T07:51:10.339Z,82.29
2022-10-01T07:52:41.836Z,82.36
2022-10-01T07:54:13.598Z,82.27
2022-10-01T07:55:46.488Z,81.77
2022-10-01T07:57:18.062Z,81.58
2022-10-01T07:58:50.377Z,80.84
2022-10-01T08:00:22.845Z,80.91
2022-10-01T08:01:54.677Z,80.67
2022-10-01T08:03:27.616Z,80.00
2022-10-01T08:05:17.619Z,79.82
2022-10-01T08:06:49.180Z,79.55
2022-10-01T08:08:20.824Z,79.29
2022-10-01T08:09:52.340Z,79.65
2022-10-01T08:11:25.232Z,79.64
2022-10-01T08:13:00.049Z,79.65
2022-10-01T08:14:31.559Z,80.06
2022-10-01T08:16:03.638Z,79.80
2022-10-01T08:17:35.142Z,79.68
2022-10-01T08:19:09.610Z,79.58
2022-10-01T08:20:41.136Z,79.07
2022-10-01T08:22:12.575Z,78.88
2022-10-01T08:23:44.066Z,78.27
2022-10-01T08:25:16.235Z,78.05
2022-10-01T08:26:53.307Z,78.14
2022-10-01T08:28:25.651Z,78.21
2022-10-01T08:29:57.266Z,78.50
2022-10-01T08:31:28.759Z,78.35
2022-10-01T08:33:00.577Z,78.44
2022-10-01T08:34:32.020Z,77.94
2022-10-01T08:36:03.918Z,78.01
2022-10-01T08:37:35.383Z,78.38
2022-10-01T08:39:06.962Z,78.15
2022-10-01T08:40:42.175Z,78.43
2022-10-01T08:42:22.013Z,78.42
2022-10-01T08:43:53.762Z,78.17
2022-10-01T08:45:26.747Z,78.07
2022-10-01T08:47:00.770Z,78.30
2022-10-01T08:48:39.900Z,77.88
2022-10-01T08:50:15.020Z,77.90
2022-10-01T08:51:48.146Z,77.95
2022-10-01T08:53:28.335Z,77.81
2022-10-01T08:55:02.066Z,77.50
2022-10-01T08:56:34.984Z,77.08
2022-10-01T08:58:11.813Z,77.12
2022-10-01T08:59:44.389Z,76.85
2022-10-01T09:01:15.963Z,76.89
2022-10-01T09:02:47.749Z,77.18
2022-10-01T09:04:19.248Z,77.24
2022-10-01T09:06:04.064Z,77.22
2022-10-01T09:07:42.581Z,77.64
2022-10-01T09:09:24.410Z,78.14
2022-10-01T09:11:00.768Z,78.13
2022-10-01T09:12:39.202Z,79.27
2022-10-01T09:14:23.416Z,82.80
2022-10-01T09:15:58.441Z,83.55
2022-10-01T09:17:42.073Z,83.64
2022-10-01T09:19:21.741Z,84.42
2022-10-01T09:20:55.836Z,84.33
2022-10-01T09:22:31.855Z,84.38
2022-10-01T09:24:04.350Z,84.31
2022-10-01T09:25:37.361Z,84.54
2022-10-01T09:27:11.816Z,86.08
2022-10-01T09:28:44.707Z,87.25
2022-10-01T09:30:19.007Z,87.85
2022-10-01T09:31:51.858Z,88.14
2022-10-01T09:33:24.823Z,88.42
2022-10-01T09:35:00.862Z,88.91
2022-10-01T09:36:37.131Z,89.11
2022-10-01T09:38:13.424Z,88.91
2022-10-01T09:39:56.941Z,88.03
2022-10-01T09:41:28.434Z,87.44
2022-10-01T09:43:00.718Z,87.02
2022-10-01T09:44:32.767Z,85.71
2022-10-01T09:46:13.093Z,84.94
2022-10-01T09:47:47.084Z,84.17
2022-10-01T09:49:25.676Z,83.71
2022-10-01T09:50:59.278Z,83.28
2022-10-01T09:52:33.428Z,83.22
2022-10-01T09:54:12.892Z,82.81
2022-10-01T09:55:45.049Z,82.51
2022-10-01T09:57:21.993Z,82.25
2022-10-01T09:58:54.979Z,80.90
2022-10-01T10:00:27.272Z,79.98
2022-10-01T10:02:02.038Z,79.95
2022-10-01T10:03:33.889Z,79.85
2022-10-01T10:05:06.942Z,79.33
2022-10-01T10:06:38.869Z,78.89
2022-10-01T10:08:12.655Z,78.64
2022-10-01T10:09:44.457Z,78.11
2022-10-01T10:11:21.736Z,77.35
2022-10-01T10:12:57.823Z,78.07
2022-10-01T10:14:30.557Z,77.23
2022-10-01T10:16:10.527Z,76.33
2022-10-01T10:17:44.243Z,76.90
2022-10-01T10:19:17.730Z,76.71
2022-10-01T10:20:51.568Z,76.36
2022-10-01T10:22:24.967Z,76.21
2022-10-01T10:23:58.028Z,75.10
2022-10-01T10:25:29.501Z,74.91
2022-10-01T10:27:01.871Z,74.88
2022-10-01T10:28:43.328Z,74.39
2022-10-01T10:30:16.443Z,74.36
2022-10-01T10:31:50.971Z,74.01
2022-10-01T10:33:26.175Z,74.08
2022-10-01T10:35:02.953Z,73.32
2022-10-01T10:36:36.477Z,73.57
2022-10-01T10:38:17.823Z,72.54
2022-10-01T10:39:51.180Z,72.45
2022-10-01T10:41:26.496Z,72.74
2022-10-01T10:42:59.065Z,72.75
2022-10-01T10:44:35.141Z,73.65
2022-10-01T10:46:08.365Z,73.24
2022-10-01T10:47:44.144Z,73.06
2022-10-01T10:49:18.440Z,72.05
2022-10-01T10:50:49.964Z,72.37
2022-10-01T10:52:24.336Z,72.10
2022-10-01T10:53:55.933Z,72.28
2022-10-01T10:55:30.157Z,70.64
2022-10-01T10:57:03.274Z,70.77
2022-10-01T10:58:42.394Z,69.87
2022-10-01T11:00:17.757Z,70.34
2022-10-01T11:01:52.002Z,69.16
2022-10-01T11:03:24.400Z,70.40
2022-10-01T11:04:58.076Z,70.48
2022-10-01T11:06:30.216Z,70.18
2022-10-01T11:08:03.840Z,70.50
2022-10-01T11:09:43.354Z,70.29
2022-10-01T11:11:23.277Z,68.85
2022-10-01T11:13:02.842Z,68.49
2022-10-01T11:14:42.073Z,69.07
2022-10-01T11:16:22.366Z,68.99
2022-10-01T11:18:05.190Z,68.86
2022-10-01T11:19:42.071Z,69.27
2022-10-01T11:21:22.358Z,69.20
2022-10-01T11:23:00.817Z,69.46
2022-10-01T11:24:49.035Z,69.73
2022-10-01T11:26:25.236Z,69.59
2022-10-01T11:28:03.413Z,69.56
2022-10-01T11:29:42.499Z,69.94
2022-10-01T11:31:22.508Z,69.24
2022-10-01T11:33:00.624Z,69.22
2022-10-01T11:34:49.408Z,68.98
2022-10-01T11:36:28.447Z,67.91
2022-10-01T11:38:18.773Z,67.41
2022-10-01T11:39:53.776Z,68.04
2022-10-01T11:41:29.938Z,65.74
2022-10-01T11:43:04.919Z,65.32
2022-10-01T11:44:39.503Z,62.89
2022-10-01T11:46:13.923Z,63.12
2022-10-01T11:47:50.090Z,63.26
2022-10-01T11:49:41.938Z,63.43
2022-10-01T11:51:15.492Z,64.18
2022-10-01T11:52:55.321Z,63.80
2022-10-01T11:54:30.067Z,62.86
2022-10-01T11:56:22.570Z,63.95
2022-10-01T11:58:16.076Z,64.02
2022-10-01T11:59:50.419Z,63.11
2022-10-01T12:01:27.878Z,63.24
2022-10-01T12:03:02.257Z,63.96
2022-10-01T12:04:37.453Z,64.44
2022-10-01T12:06:14.626Z,64.22
2022-10-01T12:07:49.750Z,63.03
2022-10-01T12:09:26.543Z,63.63
2022-10-01T12:11:01.111Z,63.40
2022-10-01T12:12:36.959Z,63.49
2022-10-01T12:14:10.925Z,62.50
2022-10-01T12:15:45.086Z,61.91
2022-10-01T12:17:19.465Z,61.04
2022-10-01T12:18:55.002Z,61.71
2022-10-01T12:20:30.017Z,61.74
2022-10-01T12:22:05.598Z,61.80
2022-10-01T12:23:45.616Z,61.36
2022-10-01T12:25:19.913Z,61.17
2022-10-01T12:26:58.602Z,61.84
2022-10-01T12:28:34.021Z,61.29
2022-10-01T12:30:06.508Z,59.83
2022-10-01T12:31:43.467Z,58.79
2022-10-01T12:33:27.896Z,58.76
2022-10-01T12:35:04.554Z,58.14
2022-10-01T12:36:43.180Z,57.27
2022-10-01T12:38:22.308Z,57.02
2022-10-01T12:39:59.889Z,57.05
2022-10-01T12:41:38.705Z,55.71
2022-10-01T12:43:20.582Z,55.21
2022-10-01T12:44:58.654Z,54.47
2022-10-01T12:46:33.758Z,53.63
2022-10-01T12:48:11.373Z,52.97
2022-10-01T12:49:47.403Z,53.74
2022-10-01T12:51:30.342Z,52.81
2022-10-01T12:53:23.237Z,53.12
2022-10-01T12:55:04.243Z,53.22
2022-10-01T12:56:39.308Z,52.00
2022-10-01T12:58:16.588Z,51.78
2022-10-01T12:59:57.585Z,52.68
2022-10-01T13:01:36.639Z,52.98
2022-10-01T13:03:22.996Z,52.83
2022-10-01T13:05:05.031Z,52.77
2022-10-01T13:06:43.239Z,53.11
2022-10-01T13:08:24.739Z,53.09
2022-10-01T13:10:02.472Z,52.84
2022-10-01T13:11:42.649Z,53.51
2022-10-01T13:13:17.212Z,53.93
2022-10-01T13:14:49.085Z,54.43
2022-10-01T13:16:24.757Z,54.63
2022-10-01T13:17:59.826Z,54.84
2022-10-01T13:19:35.881Z,54.72
2022-10-01T13:21:14.406Z,54.75
2022-10-01T13:22:48.793Z,54.72
2022-10-01T13:24:26.641Z,53.66
2022-10-01T13:26:01.680Z,53.11
2022-10-01T13:27:37.859Z,52.36
2022-10-01T13:29:16.079Z,52.00
2022-10-01T13:30:54.358Z,52.23
2022-10-01T13:32:30.747Z,51.44
2022-10-01T13:34:03.089Z,50.85
2022-10-01T13:35:36.501Z,49.96
2022-10-01T13:37:12.239Z,49.63
2022-10-01T13:38:46.029Z,49.78
2022-10-01T13:40:22.363Z,48.70
2022-10-01T13:41:57.232Z,48.81
2022-10-01T13:43:32.446Z,48.14
2022-10-01T13:45:05.350Z,47.99
2022-10-01T13:46:49.506Z,48.55
2022-10-01T13:48:23.397Z,49.28
2022-10-01T13:49:56.604Z,49.11
2022-10-01T13:51:33.875Z,48.26
2022-10-01T13:53:07.514Z,47.70
2022-10-01T13:54:43.956Z,47.28
2022-10-01T13:56:30.251Z,46.96
2022-10-01T13:58:02.585Z,47.60
2022-10-01T13:59:37.108Z,47.40
2022-10-01T14:01:24.409Z,47.11
2022-10-01T14:03:04.528Z,47.12
2022-10-01T14:04:38.200Z,47.54
2022-10-01T14:06:15.354Z,47.57
2022-10-01T14:07:48.669Z,47.87
2022-10-01T14:09:22.190Z,47.93
2022-10-01T14:11:15.850Z,48.34
2022-10-01T14:13:06.755Z,49.17
2022-10-01T14:14:59.089Z,49.75
2022-10-01T14:16:31.666Z,49.38
2022-10-01T14:18:06.653Z,49.66
2022-10-01T14:19:44.327Z,49.61
2022-10-01T14:21:25.649Z,49.60
2022-10-01T14:23:03.859Z,48.75
2022-10-01T14:24:41.292Z,48.83
2022-10-01T14:26:18.130Z,49.25
2022-10-01T14:27:58.301Z,48.82
2022-10-01T14:29:36.180Z,48.96
2022-10-01T14:31:12.465Z,48.73
2022-10-01T14:32:54.839Z,49.90
2022-10-01T14:34:47.391Z,51.07
2022-10-01T14:36:20.188Z,52.12
2022-10-01T14:37:56.837Z,52.95
2022-10-01T14:39:29.159Z,53.58
2022-10-01T14:41:01.962Z,53.71
2022-10-01T14:42:33.503Z,53.62
2022-10-01T14:44:17.687Z,54.35
2022-10-01T14:45:50.658Z,54.67
2022-10-01T14:47:23.964Z,54.58
2022-10-01T14:48:59.372Z,54.66
2022-10-01T14:50:33.702Z,55.79
2022-10-01T14:52:06.854Z,56.39
2022-10-01T14:53:42.543Z,56.76
2022-10-01T14:55:14.630Z,57.35
2022-10-01T14:56:46.181Z,57.16
2022-10-01T14:58:20.915Z,57.16
2022-10-01T14:59:52.954Z,57.29
2022-10-01T15:01:25.473Z,57.46
2022-10-01T15:03:04.328Z,57.05
2022-10-01T15:04:35.819Z,56.65
2022-10-01T15:06:12.107Z,56.05
2022-10-01T15:07:45.914Z,55.39
2022-10-01T15:09:19.031Z,54.86
2022-10-01T15:10:52.854Z,55.12
2022-10-01T15:12:24.492Z,53.93
2022-10-01T15:14:00.983Z,54.67
2022-10-01T15:15:33.882Z,55.48
2022-10-01T15:17:06.159Z,55.08
2022-10-01T15:18:41.473Z,55.02
2022-10-01T15:20:13.340Z,55.29
2022-10-01T15:21:47.465Z,55.69
2022-10-01T15:23:19.087Z,54.97
2022-10-01T15:24:52.508Z,55.45
2022-10-01T15:26:27.474Z,54.59
2022-10-01T15:27:59.087Z,54.90
2022-10-01T15:29:30.736Z,54.78
2022-10-01T15:31:03.409Z,55.02
2022-10-01T15:32:34.930Z,55.19
2022-10-01T15:34:10.936Z,54.76
2022-10-01T15:35:42.525Z,55.15
2022-10-01T15:37:17.933Z,55.74
2022-10-01T15:38:50.786Z,56.39
2022-10-01T15:40:25.374Z,55.99
2022-10-01T15:41:57.105Z,55.59
2022-10-01T15:43:34.742Z,55.87
2022-10-01T15:45:21.929Z,55.48
2022-10-01T15:46:53.421Z,55.25
2022-10-01T15:48:29.638Z,54.71
2022-10-01T15:50:04.704Z,53.72
2022-10-01T15:51:36.257Z,54.17
2022-10-01T15:53:15.186Z,54.24
2022-10-01T15:54:47.407Z,54.11
2022-10-01T15:56:20.384Z,53.90
2022-10-01T15:57:55.645Z,54.02
2022-10-01T15:59:27.147Z,54.33
2022-10-01T16:01:03.220Z,54.38
2022-10-01T16:02:35.489Z,54.28
2022-10-01T16:04:07.956Z,54.27
2022-10-01T16:05:45.818Z,54.44
2022-10-01T16:07:19.317Z,54.87
2022-10-01T16:09:00.370Z,54.81
2022-10-01T16:10:34.349Z,55.11
2022-10-01T16:12:18.280Z,55.12
2022-10-01T16:13:50.489Z,55.36
2022-10-01T16:15:25.997Z,55.42
2022-10-01T16:17:16.088Z,55.69
2022-10-01T16:18:52.379Z,55.97
2022-10-01T16:20:34.789Z,55.99
2022-10-01T16:22:18.672Z,56.22
2022-10-01T16:23:50.792Z,56.08
2022-10-01T16:25:31.940Z,56.56
2022-10-01T16:27:03.491Z,55.94
2022-10-01T16:28:35.707Z,55.96
2022-10-01T16:30:10.160Z,54.71
2022-10-01T16:31:43.163Z,54.62
2022-10-01T16:33:14.647Z,54.96
2022-10-01T16:34:46.178Z,54.69
2022-10-01T16:36:21.750Z,54.46
2022-10-01T16:37:56.017Z,54.73
2022-10-01T16:39:27.552Z,54.18
2022-10-01T16:40:59.109Z,53.82
2022-10-01T16:42:34.046Z,53.24
2022-10-01T16:44:05.710Z,52.82
2022-10-01T16:45:38.174Z,53.20
2022-10-01T16:47:10.133Z,53.29
2022-10-01T16:48:41.569Z,52.92
2022-10-01T16:50:14.112Z,53.04
2022-10-01T16:51:52.209Z,52.92
2022-10-01T16:53:26.007Z,52.96
2022-10-01T16:54:57.444Z,53.04
2022-10-01T16:56:28.972Z,52.68
2022-10-01T16:58:01.980Z,52.94
2022-10-01T16:59:33.774Z,53.05
2022-10-01T17:01:07.575Z,53.04
2022-10-01T17:02:39.067Z,53.39
2022-10-01T17:04:11.888Z,53.30
2022-10-01T17:05:43.944Z,53.21
2022-10-01T17:07:15.430Z,53.47
2022-10-01T17:08:48.269Z,53.70
2022-10-01T17:10:20.526Z,53.62
2022-10-01T17:11:52.287Z,53.73
2022-10-01T17:13:24.873Z,53.94
2022-10-01T17:14:56.351Z,53.74
2022-10-01T17:16:29.072Z,53.95
2022-10-01T17:18:01.193Z,53.80
2022-10-01T17:19:32.628Z,53.91
2022-10-01T17:21:04.786Z,53.97
2022-10-01T17:22:36.321Z,53.98
2022-10-01T17:24:10.822Z,54.01
2022-10-01T17:25:42.966Z,54.08
2022-10-01T17:27:14.405Z,54.28
2022-10-01T17:28:45.863Z,54.59
2022-10-01T17:30:17.693Z,54.64
2022-10-01T17:31:53.296Z,54.80
2022-10-01T17:33:28.319Z,54.90
2022-10-01T17:34:59.804Z,54.94
2022-10-01T17:36:31.580Z,54.98
2022-10-01T17:38:03.051Z,55.04
2022-10-01T17:39:36.092Z,54.89
2022-10-01T17:41:07.844Z,55.33
2022-10-01T17:42:39.609Z,55.20
2022-10-01T17:44:11.034Z,55.67
2022-10-01T17:45:43.363Z,56.10
2022-10-01T17:47:15.103Z,55.86
2022-10-01T17:48:47.623Z,56.00
2022-10-01T17:50:19.237Z,56.12
2022-10-01T17:51:51.060Z,56.57
2022-10-01T17:53:22.548Z,56.98
2022-10-01T17:54:55.383Z,57.19
2022-10-01T17:56:26.812Z,57.13
2022-10-01T17:57:58.262Z,57.52
2022-10-01T17:59:32.625Z,57.61
2022-10-01T18:01:07.390Z,57.84
2022-10-01T18:02:43.144Z,58.10
2022-10-01T18:04:15.015Z,58.04
2022-10-01T18:05:46.487Z,57.95
2022-10-01T18:07:18.018Z,57.60
2022-10-01T18:08:56.948Z,57.55
2022-10-01T18:10:29.900Z,57.94
2022-10-01T18:12:01.695Z,58.04
2022-10-01T18:13:33.775Z,58.05
2022-10-01T18:15:05.704Z,58.69
2022-10-01T18:16:37.449Z,58.51
2022-10-01T18:19:31.034Z,58.66
2022-10-01T18:20:00.790Z,58.35
2022-10-01T18:21:32.731Z,58.23
2022-10-01T18:23:04.205Z,58.24
2022-10-01T18:24:35.681Z,58.65
2022-10-01T18:26:09.074Z,58.63
2022-10-01T18:27:40.619Z,58.39
2022-10-01T18:29:16.778Z,58.51
2022-10-01T18:30:49.313Z,58.88
2022-10-01T18:32:22.061Z,58.75
2022-10-01T18:33:54.354Z,59.05
2022-10-01T18:35:29.831Z,59.04
2022-10-01T18:37:04.991Z,59.04
2022-10-01T18:38:37.353Z,59.08
2022-10-01T18:40:12.459Z,59.18
2022-10-01T18:41:45.492Z,59.27
2022-10-01T18:43:20.458Z,59.05
2022-10-01T18:44:52.638Z,59.16
2022-10-01T18:46:32.060Z,59.23
2022-10-01T18:48:13.432Z,59.48
2022-10-01T18:49:51.841Z,59.38
2022-10-01T18:51:26.897Z,59.60
2022-10-01T18:53:05.564Z,59.61
2022-10-01T18:54:51.925Z,59.84
2022-10-01T18:56:27.140Z,59.89
2022-10-01T18:58:15.036Z,59.79
2022-10-01T18:59:52.837Z,60.20
2022-10-01T19:01:29.821Z,60.37
2022-10-01T19:03:14.592Z,60.58
2022-10-01T19:04:51.459Z,60.69
2022-10-01T19:06:40.717Z,61.00
2022-10-01T19:08:23.457Z,60.98
2022-10-01T19:10:02.472Z,61.03
2022-10-01T19:11:40.123Z,61.11
2022-10-01T19:13:17.205Z,61.64
2022-10-01T19:14:57.912Z,61.51
2022-10-01T19:16:37.018Z,61.81
2022-10-01T19:18:20.887Z,61.98
2022-10-01T19:20:00.398Z,61.98
2022-10-01T19:21:36.693Z,62.08
2022-10-01T19:23:24.895Z,61.88
2022-10-01T19:25:06.628Z,62.17
2022-10-01T19:26:41.829Z,62.14
2022-10-01T19:28:19.631Z,62.36
2022-10-01T19:30:01.386Z,62.39
2022-10-01T19:31:36.270Z,62.56
2022-10-01T19:33:09.429Z,62.91
2022-10-01T19:34:42.988Z,62.90
2022-10-01T19:36:17.952Z,62.87
2022-10-01T19:37:51.767Z,62.48
2022-10-01T19:39:25.882Z,63.27
2022-10-01T19:40:59.506Z,63.15
2022-10-01T19:42:33.092Z,63.04
2022-10-01T19:44:11.159Z,63.04
2022-10-01T19:45:46.495Z,63.15
2022-10-01T19:47:22.063Z,63.40
2022-10-01T19:48:56.076Z,63.59
2022-10-01T19:50:30.072Z,63.57
2022-10-01T19:52:03.429Z,63.48
2022-10-01T19:53:37.383Z,63.66
2022-10-01T19:55:13.785Z,63.78
2022-10-01T19:56:46.784Z,63.84
2022-10-01T19:58:18.823Z,64.27
2022-10-01T19:59:54.411Z,63.96
2022-10-01T20:01:30.657Z,64.37
2022-10-01T20:03:09.629Z,64.26
2022-10-01T20:04:45.680Z,64.24
2022-10-01T20:06:20.827Z,64.64
2022-10-01T20:07:58.472Z,64.35
2022-10-01T20:09:35.748Z,64.39
2022-10-01T20:11:13.946Z,64.54
2022-10-01T20:12:49.734Z,64.93
2022-10-01T20:14:46.969Z,64.82
2022-10-01T20:16:25.407Z,65.40
2022-10-01T20:18:13.058Z,65.09
2022-10-01T20:19:49.314Z,65.17